sensor_id;sensor_type;location;lat;lon;timestamp;P1;durP1;ratioP1;P2;durP2;ratioP2
37151;SDS011;23046;50.112;8.952;2023-12-28T00:00:07;7.03;;;4.25;;
37151;SDS011;23046;50.112;8.952;2023-12-28T00:00:18;7.03;;;4.50;;
37151;SDS011;23046;50.112;8.952;2023-12-28T00:00:28;7.57;;;4.70;;
37151;SDS011;23046;50.112;8.952;2023-12-28T00:00:38;6.37;;;4.47;;
37151;SDS011;23046;50.112;8.952;2023-12-28T00:00:48;6.25;;;4.22;;
37151;SDS011;23046;50.112;8.952;2023-12-28T00:00:59;6.23;;;4.30;;
37151;SDS011;23046;50.112;8.952;2023-12-28T00:01:09;6.73;;;4.37;;
37151;SDS011;23046;50.112;8.952;2023-12-28T00:01:19;6.10;;;4.23;;
37151;SDS011;23046;50.112;8.952;2023-12-28T00:01:29;6.50;;;4.18;;
37151;SDS011;23046;50.112;8.952;2023-12-28T00:01:39;6.97;;;4.13;;
37151;SDS011;23046;50.112;8.952;2023-12-28T00:01:50;7.93;;;4.27;;
37151;SDS011;23046;50.112;8.952;2023-12-28T00:02:00;7.63;;;4.13;;
37151;SDS011;23046;50.112;8.952;2023-12-28T00:02:11;7.05;;;4.07;;
37151;SDS011;23046;50.112;8.952;2023-12-28T00:02:21;6.87;;;3.97;;
37151;SDS011;23046;50.112;8.952;2023-12-28T00:02:31;7.00;;;4.00;;
37151;SDS011;23046;50.112;8.952;2023-12-28T00:02:41;7.90;;;4.03;;
37151;SDS011;23046;50.112;8.952;2023-12-28T00:02:51;7.57;;;4.35;;
37151;SDS011;23046;50.112;8.952;2023-12-28T00:03:02;7.23;;;4.27;;
37151;SDS011;23046;50.112;8.952;2023-12-28T00:03:12;7.07;;;4.10;;
37151;SDS011;23046;50.112;8.952;2023-12-28T00:03:22;7.63;;;3.90;;
37151;SDS011;23046;50.112;8.952;2023-12-28T00:03:33;7.43;;;4.05;;
37151;SDS011;23046;50.112;8.952;2023-12-28T00:03:43;7.13;;;4.20;;
37151;SDS011;23046;50.112;8.952;2023-12-28T00:03:53;6.40;;;4.33;;
37151;SDS011;23046;50.112;8.952;2023-12-28T00:04:03;6.22;;;4.30;;
37151;SDS011;23046;50.112;8.952;2023-12-28T00:04:14;5.83;;;4.27;;
37151;SDS011;23046;50.112;8.952;2023-12-28T00:04:24;6.37;;;4.10;;
37151;SDS011;23046;50.112;8.952;2023-12-28T00:04:34;5.90;;;3.83;;
37151;SDS011;23046;50.112;8.952;2023-12-28T00:04:44;6.07;;;3.80;;
37151;SDS011;23046;50.112;8.952;2023-12-28T00:04:55;5.18;;;3.80;;
37151;SDS011;23046;50.112;8.952;2023-12-28T00:05:05;5.33;;;4.00;;
37151;SDS011;23046;50.112;8.952;2023-12-28T00:05:15;5.03;;;3.90;;
37151;SDS011;23046;50.112;8.952;2023-12-28T00:05:25;5.03;;;3.92;;
37151;SDS011;23046;50.112;8.952;2023-12-28T00:05:36;4.90;;;3.90;;
37151;SDS011;23046;50.112;8.952;2023-12-28T00:05:46;4.80;;;3.97;;
37151;SDS011;23046;50.112;8.952;2023-12-28T00:05:56;6.43;;;4.03;;
37151;SDS011;23046;50.112;8.952;2023-12-28T00:06:06;7.10;;;4.10;;
37151;SDS011;23046;50.112;8.952;2023-12-28T00:06:16;7.90;;;4.07;;
37151;SDS011;23046;50.112;8.952;2023-12-28T00:06:27;7.28;;;4.13;;
37151;SDS011;23046;50.112;8.952;2023-12-28T00:06:37;6.83;;;4.10;;
37151;SDS011;23046;50.112;8.952;2023-12-28T00:06:47;6.57;;;4.33;;
37151;SDS011;23046;50.112;8.952;2023-12-28T00:06:57;7.37;;;4.40;;
37151;SDS011;23046;50.112;8.952;2023-12-28T00:07:07;7.60;;;4.50;;
37151;SDS011;23046;50.112;8.952;2023-12-28T00:07:18;8.48;;;4.40;;
37151;SDS011;23046;50.112;8.952;2023-12-28T00:07:28;7.43;;;4.33;;
37151;SDS011;23046;50.112;8.952;2023-12-28T00:07:38;7.00;;;4.40;;
37151;SDS011;23046;50.112;8.952;2023-12-28T00:07:48;5.73;;;4.30;;
37151;SDS011;23046;50.112;8.952;2023-12-28T00:08:06;7.35;;;4.13;;
37151;SDS011;23046;50.112;8.952;2023-12-28T00:08:16;7.50;;;4.20;;
37151;SDS011;23046;50.112;8.952;2023-12-28T00:08:27;5.82;;;4.28;;
37151;SDS011;23046;50.112;8.952;2023-12-28T00:08:37;6.73;;;4.30;;
37151;SDS011;23046;50.112;8.952;2023-12-28T00:08:47;6.97;;;4.17;;
37151;SDS011;23046;50.112;8.952;2023-12-28T00:08:58;6.80;;;4.05;;
37151;SDS011;23046;50.112;8.952;2023-12-28T00:09:10;6.38;;;4.13;;
37151;SDS011;23046;50.112;8.952;2023-12-28T00:09:20;5.90;;;3.87;;
37151;SDS011;23046;50.112;8.952;2023-12-28T00:09:31;5.47;;;3.67;;
37151;SDS011;23046;50.112;8.952;2023-12-28T00:09:41;5.47;;;3.70;;
37151;SDS011;23046;50.112;8.952;2023-12-28T00:09:51;6.53;;;4.10;;
37151;SDS011;23046;50.112;8.952;2023-12-28T00:10:02;7.13;;;4.33;;
37151;SDS011;23046;50.112;8.952;2023-12-28T00:10:12;7.00;;;4.15;;
37151;SDS011;23046;50.112;8.952;2023-12-28T00:10:23;7.60;;;4.07;;
37151;SDS011;23046;50.112;8.952;2023-12-28T00:10:33;8.10;;;4.13;;
37151;SDS011;23046;50.112;8.952;2023-12-28T00:10:44;7.50;;;4.32;;
37151;SDS011;23046;50.112;8.952;2023-12-28T00:10:54;6.53;;;4.30;;
37151;SDS011;23046;50.112;8.952;2023-12-28T00:11:04;6.10;;;4.10;;
37151;SDS011;23046;50.112;8.952;2023-12-28T00:11:14;7.33;;;4.00;;
37151;SDS011;23046;50.112;8.952;2023-12-28T00:11:24;7.27;;;4.00;;
37151;SDS011;23046;50.112;8.952;2023-12-28T00:11:35;6.57;;;3.80;;
37151;SDS011;23046;50.112;8.952;2023-12-28T00:11:45;5.57;;;3.92;;
37151;SDS011;23046;50.112;8.952;2023-12-28T00:11:55;6.90;;;3.80;;
37151;SDS011;23046;50.112;8.952;2023-12-28T00:12:05;8.67;;;4.00;;
37151;SDS011;23046;50.112;8.952;2023-12-28T00:12:16;8.37;;;4.00;;
37151;SDS011;23046;50.112;8.952;2023-12-28T00:12:26;6.75;;;4.10;;
37151;SDS011;23046;50.112;8.952;2023-12-28T00:12:36;5.87;;;4.23;;
37151;SDS011;23046;50.112;8.952;2023-12-28T00:12:46;5.90;;;4.10;;
37151;SDS011;23046;50.112;8.952;2023-12-28T00:12:56;7.27;;;4.20;;
37151;SDS011;23046;50.112;8.952;2023-12-28T00:13:07;7.27;;;4.40;;
37151;SDS011;23046;50.112;8.952;2023-12-28T00:13:17;7.07;;;4.43;;
37151;SDS011;23046;50.112;8.952;2023-12-28T00:13:27;6.18;;;4.25;;
37151;SDS011;23046;50.112;8.952;2023-12-28T00:13:37;5.60;;;3.90;;
37151;SDS011;23046;50.112;8.952;2023-12-28T00:13:47;5.53;;;3.80;;
37151;SDS011;23046;50.112;8.952;2023-12-28T00:13:58;5.60;;;4.00;;
37151;SDS011;23046;50.112;8.952;2023-12-28T00:14:08;5.50;;;4.00;;
37151;SDS011;23046;50.112;8.952;2023-12-28T00:14:18;7.65;;;4.22;;
37151;SDS011;23046;50.112;8.952;2023-12-28T00:14:28;7.23;;;4.17;;
37151;SDS011;23046;50.112;8.952;2023-12-28T00:14:38;7.97;;;4.27;;
37151;SDS011;23046;50.112;8.952;2023-12-28T00:14:49;6.17;;;4.23;;
37151;SDS011;23046;50.112;8.952;2023-12-28T00:14:59;6.73;;;4.33;;
37151;SDS011;23046;50.112;8.952;2023-12-28T00:15:09;7.13;;;4.40;;
37151;SDS011;23046;50.112;8.952;2023-12-28T00:15:19;7.27;;;4.57;;
37151;SDS011;23046;50.112;8.952;2023-12-28T00:15:30;7.13;;;4.60;;
37151;SDS011;23046;50.112;8.952;2023-12-28T00:15:40;7.40;;;4.50;;
37151;SDS011;23046;50.112;8.952;2023-12-28T00:15:50;7.82;;;4.53;;
37151;SDS011;23046;50.112;8.952;2023-12-28T00:16:00;8.17;;;4.63;;
37151;SDS011;23046;50.112;8.952;2023-12-28T00:16:10;7.40;;;4.70;;
37151;SDS011;23046;50.112;8.952;2023-12-28T00:16:21;7.20;;;4.50;;
37151;SDS011;23046;50.112;8.952;2023-12-28T00:16:31;7.27;;;4.27;;
37151;SDS011;23046;50.112;8.952;2023-12-28T00:16:46;7.20;;;3.92;;
37151;SDS011;23046;50.112;8.952;2023-12-28T00:16:56;6.37;;;4.00;;
37151;SDS011;23046;50.112;8.952;2023-12-28T00:17:07;7.97;;;4.40;;
37151;SDS011;23046;50.112;8.952;2023-12-28T00:17:17;8.50;;;4.80;;
37151;SDS011;23046;50.112;8.952;2023-12-28T00:17:27;9.00;;;4.90;;
37151;SDS011;23046;50.112;8.952;2023-12-28T00:17:37;8.25;;;4.85;;
37151;SDS011;23046;50.112;8.952;2023-12-28T00:17:48;7.30;;;4.53;;
37151;SDS011;23046;50.112;8.952;2023-12-28T00:17:58;6.73;;;4.40;;
37151;SDS011;23046;50.112;8.952;2023-12-28T00:18:08;7.77;;;4.20;;
37151;SDS011;23046;50.112;8.952;2023-12-28T00:18:18;7.97;;;4.13;;
37151;SDS011;23046;50.112;8.952;2023-12-28T00:18:28;8.20;;;4.13;;
37151;SDS011;23046;50.112;8.952;2023-12-28T00:18:39;7.23;;;4.30;;
37151;SDS011;23046;50.112;8.952;2023-12-28T00:18:49;6.47;;;4.30;;
37151;SDS011;23046;50.112;8.952;2023-12-28T00:18:59;6.63;;;4.40;;
37151;SDS011;23046;50.112;8.952;2023-12-28T00:19:11;6.97;;;4.40;;
37151;SDS011;23046;50.112;8.952;2023-12-28T00:19:22;7.20;;;4.50;;
37151;SDS011;23046;50.112;8.952;2023-12-28T00:19:32;6.43;;;4.40;;
37151;SDS011;23046;50.112;8.952;2023-12-28T00:19:42;6.53;;;4.67;;
37151;SDS011;23046;50.112;8.952;2023-12-28T00:19:52;7.13;;;4.80;;
37151;SDS011;23046;50.112;8.952;2023-12-28T00:20:03;7.40;;;4.73;;
37151;SDS011;23046;50.112;8.952;2023-12-28T00:20:13;6.73;;;4.50;;
37151;SDS011;23046;50.112;8.952;2023-12-28T00:20:23;5.70;;;4.30;;
37151;SDS011;23046;50.112;8.952;2023-12-28T00:20:33;6.53;;;4.63;;
37151;SDS011;23046;50.112;8.952;2023-12-28T00:20:44;6.67;;;4.63;;
37151;SDS011;23046;50.112;8.952;2023-12-28T00:20:54;8.23;;;4.70;;
37151;SDS011;23046;50.112;8.952;2023-12-28T00:21:04;8.00;;;4.40;;
37151;SDS011;23046;50.112;8.952;2023-12-28T00:21:14;9.13;;;4.43;;
37151;SDS011;23046;50.112;8.952;2023-12-28T00:21:24;8.70;;;4.53;;
37151;SDS011;23046;50.112;8.952;2023-12-28T00:21:35;9.13;;;4.63;;
37151;SDS011;23046;50.112;8.952;2023-12-28T00:21:45;8.53;;;4.73;;
37151;SDS011;23046;50.112;8.952;2023-12-28T00:21:55;9.63;;;4.97;;
37151;SDS011;23046;50.112;8.952;2023-12-28T00:22:05;11.80;;;5.10;;
37151;SDS011;23046;50.112;8.952;2023-12-28T00:22:15;10.73;;;4.88;;
37151;SDS011;23046;50.112;8.952;2023-12-28T00:22:26;10.10;;;4.67;;
37151;SDS011;23046;50.112;8.952;2023-12-28T00:22:36;7.47;;;4.50;;
37151;SDS011;23046;50.112;8.952;2023-12-28T00:22:49;8.27;;;4.70;;
37151;SDS011;23046;50.112;8.952;2023-12-28T00:22:59;9.20;;;4.70;;
37151;SDS011;23046;50.112;8.952;2023-12-28T00:23:10;8.95;;;4.70;;
37151;SDS011;23046;50.112;8.952;2023-12-28T00:23:20;10.83;;;5.03;;
37151;SDS011;23046;50.112;8.952;2023-12-28T00:23:30;10.10;;;5.20;;
37151;SDS011;23046;50.112;8.952;2023-12-28T00:23:41;9.47;;;5.03;;
37151;SDS011;23046;50.112;8.952;2023-12-28T00:23:51;7.97;;;4.87;;
37151;SDS011;23046;50.112;8.952;2023-12-28T00:24:01;8.20;;;4.63;;
37151;SDS011;23046;50.112;8.952;2023-12-28T00:24:11;9.23;;;4.63;;
37151;SDS011;23046;50.112;8.952;2023-12-28T00:24:21;9.43;;;4.70;;
37151;SDS011;23046;50.112;8.952;2023-12-28T00:24:32;9.60;;;4.80;;
37151;SDS011;23046;50.112;8.952;2023-12-28T00:24:42;8.70;;;4.70;;
37151;SDS011;23046;50.112;8.952;2023-12-28T00:24:52;7.83;;;4.37;;
37151;SDS011;23046;50.112;8.952;2023-12-28T00:25:03;7.67;;;4.57;;
37151;SDS011;23046;50.112;8.952;2023-12-28T00:25:13;8.15;;;4.63;;
37151;SDS011;23046;50.112;8.952;2023-12-28T00:25:24;8.45;;;4.75;;
37151;SDS011;23046;50.112;8.952;2023-12-28T00:25:34;7.70;;;4.50;;
37151;SDS011;23046;50.112;8.952;2023-12-28T00:25:44;8.07;;;4.60;;
37151;SDS011;23046;50.112;8.952;2023-12-28T00:25:55;7.82;;;4.57;;
37151;SDS011;23046;50.112;8.952;2023-12-28T00:26:05;7.63;;;4.60;;
37151;SDS011;23046;50.112;8.952;2023-12-28T00:26:18;7.35;;;4.47;;
37151;SDS011;23046;50.112;8.952;2023-12-28T00:26:31;7.53;;;4.50;;
37151;SDS011;23046;50.112;8.952;2023-12-28T00:26:47;8.05;;;4.63;;
37151;SDS011;23046;50.112;8.952;2023-12-28T00:26:57;8.00;;;4.70;;
37151;SDS011;23046;50.112;8.952;2023-12-28T00:27:08;7.10;;;4.80;;
37151;SDS011;23046;50.112;8.952;2023-12-28T00:27:18;6.87;;;4.93;;
37151;SDS011;23046;50.112;8.952;2023-12-28T00:27:28;7.07;;;5.00;;
37151;SDS011;23046;50.112;8.952;2023-12-28T00:27:38;7.07;;;4.90;;
37151;SDS011;23046;50.112;8.952;2023-12-28T00:27:48;7.67;;;4.93;;
37151;SDS011;23046;50.112;8.952;2023-12-28T00:27:59;8.02;;;4.72;;
37151;SDS011;23046;50.112;8.952;2023-12-28T00:28:09;8.93;;;4.70;;
37151;SDS011;23046;50.112;8.952;2023-12-28T00:28:20;10.30;;;4.68;;
37151;SDS011;23046;50.112;8.952;2023-12-28T00:28:30;10.13;;;4.80;;
37151;SDS011;23046;50.112;8.952;2023-12-28T00:28:40;10.03;;;4.80;;
37151;SDS011;23046;50.112;8.952;2023-12-28T00:28:50;8.33;;;4.73;;
37151;SDS011;23046;50.112;8.952;2023-12-28T00:29:01;7.93;;;4.72;;
37151;SDS011;23046;50.112;8.952;2023-12-28T00:29:11;7.23;;;4.83;;
37151;SDS011;23046;50.112;8.952;2023-12-28T00:29:21;6.57;;;4.63;;
37151;SDS011;23046;50.112;8.952;2023-12-28T00:29:32;6.93;;;4.70;;
37151;SDS011;23046;50.112;8.952;2023-12-28T00:29:42;7.70;;;4.43;;
37151;SDS011;23046;50.112;8.952;2023-12-28T00:29:53;8.53;;;4.67;;
37151;SDS011;23046;50.112;8.952;2023-12-28T00:30:04;8.18;;;4.57;;
37151;SDS011;23046;50.112;8.952;2023-12-28T00:30:14;7.57;;;4.57;;
37151;SDS011;23046;50.112;8.952;2023-12-28T00:30:27;7.15;;;4.35;;
37151;SDS011;23046;50.112;8.952;2023-12-28T00:30:37;7.50;;;4.63;;
37151;SDS011;23046;50.112;8.952;2023-12-28T00:30:47;8.03;;;4.73;;
37151;SDS011;23046;50.112;8.952;2023-12-28T00:30:57;8.67;;;4.93;;
37151;SDS011;23046;50.112;8.952;2023-12-28T00:31:09;8.43;;;4.77;;
37151;SDS011;23046;50.112;8.952;2023-12-28T00:31:19;9.35;;;4.97;;
37151;SDS011;23046;50.112;8.952;2023-12-28T00:31:29;10.20;;;5.00;;
37151;SDS011;23046;50.112;8.952;2023-12-28T00:31:39;10.13;;;5.07;;
37151;SDS011;23046;50.112;8.952;2023-12-28T00:31:50;8.43;;;4.80;;
37151;SDS011;23046;50.112;8.952;2023-12-28T00:32:00;7.43;;;4.72;;
37151;SDS011;23046;50.112;8.952;2023-12-28T00:32:11;6.97;;;4.60;;
37151;SDS011;23046;50.112;8.952;2023-12-28T00:32:21;8.00;;;4.70;;
37151;SDS011;23046;50.112;8.952;2023-12-28T00:32:31;7.60;;;4.63;;
37151;SDS011;23046;50.112;8.952;2023-12-28T00:32:41;7.20;;;4.43;;
37151;SDS011;23046;50.112;8.952;2023-12-28T00:32:54;6.63;;;4.47;;
37151;SDS011;23046;50.112;8.952;2023-12-28T00:33:04;7.80;;;4.53;;
37151;SDS011;23046;50.112;8.952;2023-12-28T00:33:14;8.35;;;4.70;;
37151;SDS011;23046;50.112;8.952;2023-12-28T00:33:25;7.57;;;4.80;;
37151;SDS011;23046;50.112;8.952;2023-12-28T00:33:35;6.90;;;4.90;;
37151;SDS011;23046;50.112;8.952;2023-12-28T00:33:46;6.47;;;4.68;;
37151;SDS011;23046;50.112;8.952;2023-12-28T00:33:56;7.43;;;4.40;;
37151;SDS011;23046;50.112;8.952;2023-12-28T00:34:07;8.52;;;4.43;;
37151;SDS011;23046;50.112;8.952;2023-12-28T00:34:17;9.03;;;4.43;;
37151;SDS011;23046;50.112;8.952;2023-12-28T00:34:28;9.27;;;4.53;;
37151;SDS011;23046;50.112;8.952;2023-12-28T00:34:38;8.20;;;4.43;;
37151;SDS011;23046;50.112;8.952;2023-12-28T00:34:49;7.95;;;4.53;;
37151;SDS011;23046;50.112;8.952;2023-12-28T00:34:59;8.20;;;4.57;;
37151;SDS011;23046;50.112;8.952;2023-12-28T00:35:11;7.63;;;4.47;;
37151;SDS011;23046;50.112;8.952;2023-12-28T00:35:21;6.88;;;4.30;;
37151;SDS011;23046;50.112;8.952;2023-12-28T00:35:32;6.50;;;4.18;;
37151;SDS011;23046;50.112;8.952;2023-12-28T00:35:42;6.33;;;4.20;;
37151;SDS011;23046;50.112;8.952;2023-12-28T00:35:53;6.68;;;4.40;;
37151;SDS011;23046;50.112;8.952;2023-12-28T00:36:04;6.17;;;4.47;;
37151;SDS011;23046;50.112;8.952;2023-12-28T00:36:14;7.22;;;4.78;;
37151;SDS011;23046;50.112;8.952;2023-12-28T00:36:25;7.67;;;5.03;;
37151;SDS011;23046;50.112;8.952;2023-12-28T00:36:35;7.63;;;4.80;;
37151;SDS011;23046;50.112;8.952;2023-12-28T00:36:45;7.00;;;4.40;;
37151;SDS011;23046;50.112;8.952;2023-12-28T00:36:55;6.77;;;4.40;;
37151;SDS011;23046;50.112;8.952;2023-12-28T00:37:06;6.88;;;4.50;;
37151;SDS011;23046;50.112;8.952;2023-12-28T00:37:16;8.23;;;4.63;;
37151;SDS011;23046;50.112;8.952;2023-12-28T00:37:27;7.27;;;4.43;;
37151;SDS011;23046;50.112;8.952;2023-12-28T00:37:37;7.60;;;4.40;;
37151;SDS011;23046;50.112;8.952;2023-12-28T00:37:48;7.00;;;4.43;;
37151;SDS011;23046;50.112;8.952;2023-12-28T00:37:58;7.93;;;4.50;;
37151;SDS011;23046;50.112;8.952;2023-12-28T00:38:08;7.63;;;4.53;;
37151;SDS011;23046;50.112;8.952;2023-12-28T00:38:18;7.95;;;4.53;;
37151;SDS011;23046;50.112;8.952;2023-12-28T00:38:28;7.87;;;4.60;;
37151;SDS011;23046;50.112;8.952;2023-12-28T00:38:39;9.10;;;4.70;;
37151;SDS011;23046;50.112;8.952;2023-12-28T00:38:49;8.40;;;4.70;;
37151;SDS011;23046;50.112;8.952;2023-12-28T00:38:59;8.47;;;4.63;;
37151;SDS011;23046;50.112;8.952;2023-12-28T00:39:09;7.37;;;4.50;;
37151;SDS011;23046;50.112;8.952;2023-12-28T00:39:19;8.23;;;4.47;;
37151;SDS011;23046;50.112;8.952;2023-12-28T00:39:30;7.77;;;4.47;;
37151;SDS011;23046;50.112;8.952;2023-12-28T00:39:40;8.43;;;4.60;;
37151;SDS011;23046;50.112;8.952;2023-12-28T00:39:50;7.85;;;4.65;;
37151;SDS011;23046;50.112;8.952;2023-12-28T00:40:01;8.13;;;4.90;;
37151;SDS011;23046;50.112;8.952;2023-12-28T00:40:11;7.70;;;4.80;;
37151;SDS011;23046;50.112;8.952;2023-12-28T00:40:21;7.80;;;4.50;;
37151;SDS011;23046;50.112;8.952;2023-12-28T00:40:33;7.25;;;4.30;;
37151;SDS011;23046;50.112;8.952;2023-12-28T00:40:43;7.57;;;4.43;;
37151;SDS011;23046;50.112;8.952;2023-12-28T00:40:53;6.97;;;4.70;;
37151;SDS011;23046;50.112;8.952;2023-12-28T00:41:05;7.88;;;4.82;;
37151;SDS011;23046;50.112;8.952;2023-12-28T00:41:15;7.50;;;4.67;;
37151;SDS011;23046;50.112;8.952;2023-12-28T00:41:26;7.80;;;4.55;;
37151;SDS011;23046;50.112;8.952;2023-12-28T00:41:37;7.72;;;4.60;;
37151;SDS011;23046;50.112;8.952;2023-12-28T00:41:48;8.75;;;4.70;;
37151;SDS011;23046;50.112;8.952;2023-12-28T00:41:58;8.67;;;4.60;;
37151;SDS011;23046;50.112;8.952;2023-12-28T00:42:08;8.63;;;4.40;;
37151;SDS011;23046;50.112;8.952;2023-12-28T00:42:18;7.83;;;4.53;;
37151;SDS011;23046;50.112;8.952;2023-12-28T00:42:31;7.65;;;4.85;;
37151;SDS011;23046;50.112;8.952;2023-12-28T00:42:41;7.17;;;4.73;;
37151;SDS011;23046;50.112;8.952;2023-12-28T00:42:52;6.32;;;4.47;;
37151;SDS011;23046;50.112;8.952;2023-12-28T00:43:02;6.73;;;4.50;;
37151;SDS011;23046;50.112;8.952;2023-12-28T00:43:12;6.90;;;4.67;;
37151;SDS011;23046;50.112;8.952;2023-12-28T00:43:22;8.17;;;4.80;;
37151;SDS011;23046;50.112;8.952;2023-12-28T00:43:33;9.98;;;4.75;;
37151;SDS011;23046;50.112;8.952;2023-12-28T00:43:43;10.50;;;5.17;;
37151;SDS011;23046;50.112;8.952;2023-12-28T00:43:53;9.90;;;4.90;;
37151;SDS011;23046;50.112;8.952;2023-12-28T00:44:05;8.07;;;4.75;;
37151;SDS011;23046;50.112;8.952;2023-12-28T00:44:19;8.90;;;4.57;;
37151;SDS011;23046;50.112;8.952;2023-12-28T00:44:29;8.77;;;4.50;;
37151;SDS011;23046;50.112;8.952;2023-12-28T00:44:39;9.37;;;4.50;;
37151;SDS011;23046;50.112;8.952;2023-12-28T00:44:49;8.80;;;4.53;;
37151;SDS011;23046;50.112;8.952;2023-12-28T00:45:00;8.73;;;4.63;;
37151;SDS011;23046;50.112;8.952;2023-12-28T00:45:10;6.93;;;4.50;;
37151;SDS011;23046;50.112;8.952;2023-12-28T00:45:20;6.37;;;4.23;;
37151;SDS011;23046;50.112;8.952;2023-12-28T00:45:30;6.83;;;4.43;;
37151;SDS011;23046;50.112;8.952;2023-12-28T00:45:41;7.97;;;4.67;;
37151;SDS011;23046;50.112;8.952;2023-12-28T00:45:52;8.23;;;4.78;;
37151;SDS011;23046;50.112;8.952;2023-12-28T00:46:03;7.43;;;4.57;;
37151;SDS011;23046;50.112;8.952;2023-12-28T00:46:14;7.63;;;4.47;;
37151;SDS011;23046;50.112;8.952;2023-12-28T00:46:24;7.97;;;4.60;;
37151;SDS011;23046;50.112;8.952;2023-12-28T00:46:35;9.13;;;4.60;;
37151;SDS011;23046;50.112;8.952;2023-12-28T00:46:45;8.77;;;4.78;;
37151;SDS011;23046;50.112;8.952;2023-12-28T00:46:55;8.83;;;4.80;;
37151;SDS011;23046;50.112;8.952;2023-12-28T00:47:05;6.77;;;4.47;;
37151;SDS011;23046;50.112;8.952;2023-12-28T00:47:17;6.03;;;4.22;;
37151;SDS011;23046;50.112;8.952;2023-12-28T00:47:27;6.00;;;4.32;;
37151;SDS011;23046;50.112;8.952;2023-12-28T00:47:37;7.27;;;4.67;;
37151;SDS011;23046;50.112;8.952;2023-12-28T00:47:47;7.40;;;4.67;;
37151;SDS011;23046;50.112;8.952;2023-12-28T00:47:58;7.17;;;4.57;;
37151;SDS011;23046;50.112;8.952;2023-12-28T00:48:09;6.95;;;4.60;;
37151;SDS011;23046;50.112;8.952;2023-12-28T00:48:19;7.75;;;4.75;;
37151;SDS011;23046;50.112;8.952;2023-12-28T00:48:29;7.67;;;4.87;;
37151;SDS011;23046;50.112;8.952;2023-12-28T00:48:39;8.10;;;4.67;;
37151;SDS011;23046;50.112;8.952;2023-12-28T00:48:50;7.60;;;4.33;;
37151;SDS011;23046;50.112;8.952;2023-12-28T00:49:00;8.70;;;4.40;;
37151;SDS011;23046;50.112;8.952;2023-12-28T00:49:11;8.02;;;4.40;;
37151;SDS011;23046;50.112;8.952;2023-12-28T00:49:21;7.43;;;4.57;;
37151;SDS011;23046;50.112;8.952;2023-12-28T00:49:32;6.20;;;4.35;;
37151;SDS011;23046;50.112;8.952;2023-12-28T00:49:42;6.63;;;4.47;;
37151;SDS011;23046;50.112;8.952;2023-12-28T00:49:53;6.38;;;4.35;;
37151;SDS011;23046;50.112;8.952;2023-12-28T00:50:03;5.90;;;4.20;;
37151;SDS011;23046;50.112;8.952;2023-12-28T00:50:14;6.03;;;4.28;;
37151;SDS011;23046;50.112;8.952;2023-12-28T00:50:27;8.25;;;4.57;;
37151;SDS011;23046;50.112;8.952;2023-12-28T00:50:41;8.23;;;4.78;;
37151;SDS011;23046;50.112;8.952;2023-12-28T00:50:52;8.00;;;4.60;;
37151;SDS011;23046;50.112;8.952;2023-12-28T00:51:05;7.70;;;4.70;;
37151;SDS011;23046;50.112;8.952;2023-12-28T00:51:15;8.40;;;4.87;;
37151;SDS011;23046;50.112;8.952;2023-12-28T00:51:25;7.95;;;4.80;;
37151;SDS011;23046;50.112;8.952;2023-12-28T00:51:35;9.57;;;4.57;;
37151;SDS011;23046;50.112;8.952;2023-12-28T00:51:46;9.55;;;4.47;;
37151;SDS011;23046;50.112;8.952;2023-12-28T00:51:56;9.77;;;4.53;;
37151;SDS011;23046;50.112;8.952;2023-12-28T00:52:07;8.27;;;4.67;;
37151;SDS011;23046;50.112;8.952;2023-12-28T00:52:17;8.47;;;4.70;;
37151;SDS011;23046;50.112;8.952;2023-12-28T00:52:27;7.70;;;4.63;;
37151;SDS011;23046;50.112;8.952;2023-12-28T00:52:37;7.37;;;4.70;;
37151;SDS011;23046;50.112;8.952;2023-12-28T00:52:48;6.93;;;4.50;;
37151;SDS011;23046;50.112;8.952;2023-12-28T00:52:58;7.53;;;4.37;;
37151;SDS011;23046;50.112;8.952;2023-12-28T00:53:08;7.65;;;4.32;;
37151;SDS011;23046;50.112;8.952;2023-12-28T00:53:18;7.63;;;4.37;;
37151;SDS011;23046;50.112;8.952;2023-12-28T00:53:29;7.25;;;4.50;;
37151;SDS011;23046;50.112;8.952;2023-12-28T00:53:40;7.43;;;4.60;;
37151;SDS011;23046;50.112;8.952;2023-12-28T00:53:50;7.63;;;4.80;;
37151;SDS011;23046;50.112;8.952;2023-12-28T00:54:00;7.97;;;4.80;;
37151;SDS011;23046;50.112;8.952;2023-12-28T00:54:11;7.83;;;4.93;;
37151;SDS011;23046;50.112;8.952;2023-12-28T00:54:21;8.50;;;5.00;;
37151;SDS011;23046;50.112;8.952;2023-12-28T00:54:31;7.72;;;4.82;;
37151;SDS011;23046;50.112;8.952;2023-12-28T00:54:41;7.30;;;4.43;;
37151;SDS011;23046;50.112;8.952;2023-12-28T00:54:52;6.82;;;4.53;;
37151;SDS011;23046;50.112;8.952;2023-12-28T00:55:03;8.07;;;4.40;;
37151;SDS011;23046;50.112;8.952;2023-12-28T00:55:14;8.70;;;4.60;;
37151;SDS011;23046;50.112;8.952;2023-12-28T00:55:24;8.00;;;4.43;;
37151;SDS011;23046;50.112;8.952;2023-12-28T00:55:35;8.43;;;4.53;;
37151;SDS011;23046;50.112;8.952;2023-12-28T00:55:46;8.13;;;4.45;;
37151;SDS011;23046;50.112;8.952;2023-12-28T00:55:56;8.50;;;4.60;;
37151;SDS011;23046;50.112;8.952;2023-12-28T00:56:06;7.17;;;4.53;;
37151;SDS011;23046;50.112;8.952;2023-12-28T00:56:17;7.03;;;4.40;;
37151;SDS011;23046;50.112;8.952;2023-12-28T00:56:27;7.13;;;4.20;;
37151;SDS011;23046;50.112;8.952;2023-12-28T00:56:37;7.18;;;4.15;;
37151;SDS011;23046;50.112;8.952;2023-12-28T00:56:48;6.57;;;4.30;;
37151;SDS011;23046;50.112;8.952;2023-12-28T00:56:58;6.17;;;4.47;;
37151;SDS011;23046;50.112;8.952;2023-12-28T00:57:08;7.87;;;4.57;;
37151;SDS011;23046;50.112;8.952;2023-12-28T00:57:18;8.32;;;4.60;;
37151;SDS011;23046;50.112;8.952;2023-12-28T00:57:29;8.30;;;4.47;;
37151;SDS011;23046;50.112;8.952;2023-12-28T00:57:39;7.33;;;4.70;;
37151;SDS011;23046;50.112;8.952;2023-12-28T00:57:49;6.33;;;4.50;;
37151;SDS011;23046;50.112;8.952;2023-12-28T00:57:59;6.93;;;4.50;;
37151;SDS011;23046;50.112;8.952;2023-12-28T00:58:11;7.90;;;4.43;;
37151;SDS011;23046;50.112;8.952;2023-12-28T00:58:21;8.23;;;4.50;;
37151;SDS011;23046;50.112;8.952;2023-12-28T00:58:31;7.03;;;4.57;;
37151;SDS011;23046;50.112;8.952;2023-12-28T00:58:42;5.87;;;4.33;;
37151;SDS011;23046;50.112;8.952;2023-12-28T00:58:53;5.82;;;4.50;;
37151;SDS011;23046;50.112;8.952;2023-12-28T00:59:04;5.57;;;4.43;;
37151;SDS011;23046;50.112;8.952;2023-12-28T00:59:14;6.03;;;4.57;;
37151;SDS011;23046;50.112;8.952;2023-12-28T00:59:24;6.07;;;4.50;;
37151;SDS011;23046;50.112;8.952;2023-12-28T00:59:34;6.70;;;4.63;;
37151;SDS011;23046;50.112;8.952;2023-12-28T00:59:45;7.35;;;4.35;;
37151;SDS011;23046;50.112;8.952;2023-12-28T00:59:55;7.77;;;4.40;;
37151;SDS011;23046;50.112;8.952;2023-12-28T01:00:05;7.33;;;4.37;;
37151;SDS011;23046;50.112;8.952;2023-12-28T01:00:16;6.93;;;4.60;;
37151;SDS011;23046;50.112;8.952;2023-12-28T01:00:26;6.80;;;4.43;;
37151;SDS011;23046;50.112;8.952;2023-12-28T01:00:36;6.53;;;4.27;;
37151;SDS011;23046;50.112;8.952;2023-12-28T01:00:46;6.40;;;4.10;;
37151;SDS011;23046;50.112;8.952;2023-12-28T01:00:57;5.80;;;4.15;;
37151;SDS011;23046;50.112;8.952;2023-12-28T01:01:08;6.17;;;4.20;;
37151;SDS011;23046;50.112;8.952;2023-12-28T01:01:18;6.22;;;4.28;;
37151;SDS011;23046;50.112;8.952;2023-12-28T01:01:28;8.30;;;4.47;;
37151;SDS011;23046;50.112;8.952;2023-12-28T01:01:40;7.82;;;4.35;;
37151;SDS011;23046;50.112;8.952;2023-12-28T01:01:50;7.80;;;4.47;;
37151;SDS011;23046;50.112;8.952;2023-12-28T01:02:01;6.38;;;4.38;;
37151;SDS011;23046;50.112;8.952;2023-12-28T01:02:11;6.63;;;4.30;;
37151;SDS011;23046;50.112;8.952;2023-12-28T01:02:21;6.67;;;4.23;;
37151;SDS011;23046;50.112;8.952;2023-12-28T01:02:32;7.30;;;4.27;;
37151;SDS011;23046;50.112;8.952;2023-12-28T01:02:42;7.75;;;4.50;;
37151;SDS011;23046;50.112;8.952;2023-12-28T01:02:53;8.05;;;4.53;;
37151;SDS011;23046;50.112;8.952;2023-12-28T01:03:03;6.93;;;4.60;;
37151;SDS011;23046;50.112;8.952;2023-12-28T01:03:14;6.30;;;4.53;;